Time;durP1;ratioP1;P1;durP2;ratioP2;P2;SDS_P1;SDS_P2;PMS_P1;PMS_P2;Temp;Humidity;BMP_temperature;BMP_pressure;BME280_temperature;BME280_humidity;BME280_pressure;Samples;Min_cycle;Max_cycle;Signal;HPM_P1;HPM_P2
2021/05/22 06:55:49;;;;;;;;;;;14.60;57.70;;;;;;5051471;28;19935;-64
2021/05/22 06:58:14;;;;;;;;;;;14.30;58.30;;;;;;5052563;28;19916;-63
2021/05/22 07:00:40;;;;;;;;;;;14.30;58.80;;;;;;5052054;28;19952;-63
2021/05/22 07:03:05;;;;;;;;;;;14.20;58.90;;;;;;5051547;28;20436;-63
2021/05/22 07:05:31;;;;;;;;;;;14.30;59.30;;;;;;5067651;28;19921;-63
2021/05/22 07:07:57;;;;;;;;;;;14.40;59.50;;;;;;5051847;28;20397;-63
2021/05/22 07:10:22;;;;;;;;;;;14.60;59.40;;;;;;5052213;28;19999;-62
2021/05/22 07:12:48;;;;;;;;;;;14.70;59.40;;;;;;5050430;28;19996;-62
2021/05/22 07:15:13;;;;;;;;;;;14.80;59.10;;;;;;5067129;28;19921;-61
2021/05/22 07:17:39;;;;;;;;;;;15.00;59.30;;;;;;5051942;28;20415;-63
2021/05/22 07:20:05;;;;;;;;;;;15.10;58.60;;;;;;5067058;28;20409;-64
2021/05/22 07:22:30;;;;;;;;;;;15.20;58.70;;;;;;5050817;28;20320;-64
2021/05/22 07:24:56;;;;;;;;;;;15.40;58.30;;;;;;5051499;28;19917;-64
2021/05/22 07:27:22;;;;;;;;;;;15.50;58.20;;;;;;5051522;28;19916;-63
2021/05/22 07:29:50;;;;;;;;;;;15.60;58.30;;;;;;5052074;28;20388;-62
2021/05/22 07:32:15;;;;;;;;;;;15.70;57.60;;;;;;5051275;28;19921;-63
2021/05/22 07:34:41;;;;;;;;;;;15.70;57.40;;;;;;5066543;28;19923;-61
2021/05/22 07:37:07;;;;;;;;;;;15.80;57.70;;;;;;5051308;28;20050;-62
2021/05/22 07:39:32;;;;;;;;;;;15.90;57.10;;;;;;5050159;28;19931;-61
2021/05/22 07:41:58;;;;;;;;;;;15.90;56.50;;;;;;5051705;28;19931;-61
2021/05/22 07:44:24;;;;;;;;;;;15.90;56.80;;;;;;5051061;28;19921;-61
2021/05/22 07:46:49;;;;;;;;;;;15.90;56.70;;;;;;5050287;28;19963;-61
2021/05/22 07:49:15;;;;;;;;;;;15.90;56.80;;;;;;5066956;28;19921;-61
2021/05/22 07:51:41;;;;;;;;;;;15.90;56.40;;;;;;5051188;28;20424;-62
2021/05/22 07:54:07;;;;;;;;;;;15.90;56.60;;;;;;5050844;28;20103;-61
2021/05/22 07:56:32;;;;;;;;;;;16.00;56.00;;;;;;5051274;28;20343;-62
2021/05/22 07:58:59;;;;;;;;;;;15.80;55.40;;;;;;5050258;28;21190;-61
2021/05/22 08:01:25;;;;;;;;;;;15.70;56.00;;;;;;5051332;28;19917;-62
2021/05/22 08:03:50;;;;;;;;;;;15.70;56.10;;;;;;5066187;28;20039;-61
2021/05/22 08:06:16;;;;;;;;;;;15.60;56.00;;;;;;5049620;28;19948;-61
2021/05/22 08:08:47;;;;;;;;;;;15.40;55.60;;;;;;5083780;28;19913;-61
2021/05/22 08:11:12;;;;;;;;;;;15.20;56.00;;;;;;5050815;28;20392;-62
2021/05/22 08:13:38;;;;;;;;;;;15.20;56.60;;;;;;5050788;28;19956;-62
2021/05/22 08:16:03;;;;;;;;;;;15.20;56.10;;;;;;5051180;28;20209;-61
2021/05/22 08:18:29;;;;;;;;;;;15.10;56.10;;;;;;5050904;28;19917;-61
2021/05/22 08:20:55;;;;;;;;;;;15.20;57.10;;;;;;5049837;28;19953;-61
2021/05/22 08:23:21;;;;;;;;;;;15.40;57.10;;;;;;5050308;28;20325;-61
2021/05/22 08:25:46;;;;;;;;;;;15.70;57.50;;;;;;5051204;28;19959;-61
2021/05/22 08:28:19;;;;;;;;;;;16.40;57.40;;;;;;5051237;28;19917;-61
2021/05/22 08:30:45;;;;;;;;;;;16.50;55.70;;;;;;5050740;28;19960;-61
2021/05/22 08:33:10;;;;;;;;;;;16.40;54.90;;;;;;5050561;28;19948;-62
2021/05/22 08:35:36;;;;;;;;;;;16.10;54.30;;;;;;5050684;28;19936;-62
2021/05/22 08:38:02;;;;;;;;;;;15.70;54.10;;;;;;5051252;28;19917;-63
2021/05/22 08:40:29;;;;;;;;;;;15.40;54.90;;;;;;5066350;28;20242;-63
2021/05/22 08:42:54;;;;;;;;;;;15.10;55.90;;;;;;5049855;28;19969;-64
2021/05/22 08:45:21;;;;;;;;;;;14.90;56.00;;;;;;5050992;28;20402;-64
2021/05/22 08:47:48;;;;;;;;;;;14.80;56.40;;;;;;5050905;28;19917;-63
2021/05/22 08:50:14;;;;;;;;;;;14.70;56.90;;;;;;5054034;28;20408;-63
2021/05/22 08:52:40;;;;;;;;;;;14.60;57.40;;;;;;5054777;28;20397;-63
2021/05/22 08:55:06;;;;;;;;;;;14.60;57.50;;;;;;5053623;28;19994;-63
2021/05/22 08:57:32;;;;;;;;;;;14.60;58.00;;;;;;5086928;28;20051;-63
2021/05/22 08:59:58;;;;;;;;;;;14.70;58.00;;;;;;5054876;28;20011;-63
2021/05/22 09:02:25;;;;;;;;;;;14.70;57.90;;;;;;5054426;28;19924;-63
2021/05/22 09:05:06;;;;;;;;;;;14.70;58.10;;;;;;5054173;28;19917;-63
2021/05/22 09:07:32;;;;;;;;;;;14.70;58.10;;;;;;5054133;28;19924;-63
2021/05/22 09:10:09;;;;;;;;;;;14.60;58.30;;;;;;5070273;22;19952;-65
2021/05/22 09:12:36;;;;;;;;;;;14.60;58.80;;;;;;5034463;28;19917;-66
2021/05/22 09:15:06;;;;;;;;;;;14.60;59.00;;;;;;5034177;28;19995;-66
2021/05/22 09:17:32;;;;;;;;;;;14.50;58.80;;;;;;5034319;28;19921;-67
2021/05/22 09:20:09;;;;;;;;;;;14.40;59.10;;;;;;5029552;28;20664;-66
2021/05/22 09:22:34;;;;;;;;;;;14.30;59.60;;;;;;5034532;28;20381;-66
2021/05/22 09:25:05;;;;;;;;;;;14.30;60.40;;;;;;5033487;28;19923;-67
2021/05/22 09:27:31;;;;;;;;;;;14.30;60.50;;;;;;5034787;28;19924;-73
2021/05/22 09:29:59;;;;;;;;;;;14.20;60.70;;;;;;5032722;28;19922;-72
2021/05/22 09:32:24;;;;;;;;;;;14.10;61.30;;;;;;5034505;28;19948;-73
2021/05/22 09:34:50;;;;;;;;;;;14.10;62.00;;;;;;5032402;28;19945;-72
2021/05/22 09:37:17;;;;;;;;;;;14.10;62.50;;;;;;5032988;28;19936;-73
2021/05/22 09:39:46;;;;;;;;;;;14.20;62.70;;;;;;5034240;28;19929;-73
2021/05/22 09:42:12;;;;;;;;;;;14.20;63.00;;;;;;5033726;28;19917;-73
2021/05/22 09:44:38;;;;;;;;;;;14.20;63.60;;;;;;5033573;28;20012;-73
2021/05/22 09:47:03;;;;;;;;;;;14.30;64.00;;;;;;5033896;28;20454;-73
2021/05/22 09:49:33;;;;;;;;;;;14.30;64.00;;;;;;5031418;28;19968;-74
2021/05/22 09:51:59;;;;;;;;;;;14.20;64.10;;;;;;5021221;28;19924;-74
2021/05/22 09:54:40;;;;;;;;;;;14.20;65.00;;;;;;5020490;28;19921;-73
2021/05/22 09:57:06;;;;;;;;;;;14.30;65.10;;;;;;5019878;28;19947;-73
2021/05/22 09:59:32;;;;;;;;;;;14.30;65.10;;;;;;5023239;28;19995;-73
2021/05/22 10:01:59;;;;;;;;;;;14.20;65.30;;;;;;5024834;28;19939;-73
2021/05/22 10:04:24;;;;;;;;;;;14.20;65.50;;;;;;5031652;28;19959;-73
2021/05/22 10:06:50;;;;;;;;;;;14.20;66.00;;;;;;5032462;28;19957;-73
2021/05/22 10:09:17;;;;;;;;;;;14.20;66.50;;;;;;5033433;28;19963;-73
2021/05/22 10:12:10;;;;;;;;;;;14.10;66.10;;;;;;5031409;28;19925;-74
2021/05/22 10:14:35;;;;;;;;;;;14.10;66.10;;;;;;5030988;28;20448;-73
2021/05/22 10:17:02;;;;;;;;;;;13.90;66.40;;;;;;5033208;28;20004;-73
2021/05/22 10:19:29;;;;;;;;;;;13.80;66.90;;;;;;5033571;28;20365;-73
2021/05/22 10:21:55;;;;;;;;;;;13.70;67.30;;;;;;5032019;28;20429;-74
2021/05/22 10:24:20;;;;;;;;;;;13.70;67.90;;;;;;5032847;28;20012;-73
2021/05/22 10:26:47;;;;;;;;;;;13.70;68.10;;;;;;5029594;28;19917;-73
2021/05/22 10:29:13;;;;;;;;;;;13.70;67.90;;;;;;5020780;28;19968;-74
2021/05/22 10:31:39;;;;;;;;;;;13.60;68.10;;;;;;5044560;28;19968;-73
2021/05/22 10:34:12;;;;;;;;;;;13.60;68.30;;;;;;5053824;28;19952;-71
2021/05/22 10:36:48;;;;;;;;;;;13.60;68.70;;;;;;5035012;28;20368;-72
2021/05/22 10:39:32;;;;;;;;;;;13.50;68.60;;;;;;5052562;28;20008;-72
2021/05/22 10:41:58;;;;;;;;;;;13.40;68.70;;;;;;5051596;28;20027;-72
2021/05/22 10:44:32;;;;;;;;;;;13.10;69.00;;;;;;5069395;28;20015;-73
2021/05/22 10:47:05;;;;;;;;;;;13.00;69.50;;;;;;5071772;28;19939;-73
2021/05/22 10:49:46;;;;;;;;;;;13.00;70.20;;;;;;5072281;28;19920;-72
2021/05/22 10:52:19;;;;;;;;;;;12.90;70.30;;;;;;5072856;28;19920;-72
2021/05/22 10:55:03;;;;;;;;;;;12.80;70.90;;;;;;5071400;28;19948;-72
2021/05/22 10:57:29;;;;;;;;;;;12.80;71.10;;;;;;5072424;28;19958;-72
2021/05/22 11:00:27;;;;;;;;;;;12.70;71.30;;;;;;5071652;28;20350;-72
2021/05/22 11:02:58;;;;;;;;;;;12.70;71.60;;;;;;5048433;28;19921;-71
2021/05/22 11:05:27;;;;;;;;;;;12.60;71.80;;;;;;5072262;28;19917;-72
2021/05/22 11:08:05;;;;;;;;;;;12.60;72.00;;;;;;5072173;28;19920;-72
2021/05/22 11:10:38;;;;;;;;;;;12.50;72.50;;;;;;5071987;28;19978;-72
2021/05/22 11:13:04;;;;;;;;;;;12.50;73.00;;;;;;5057462;28;19920;-73
2021/05/22 11:15:56;;;;;;;;;;;12.60;73.20;;;;;;5071252;28;19936;-73
2021/05/22 11:18:23;;;;;;;;;;;12.60;73.50;;;;;;5070034;28;19916;-71
2021/05/22 11:21:07;;;;;;;;;;;12.60;73.70;;;;;;5077503;28;19923;-74
2021/05/22 11:23:52;;;;;;;;;;;12.60;73.40;;;;;;5071491;28;19959;-73
2021/05/22 11:26:37;;;;;;;;;;;12.50;73.70;;;;;;5072085;28;19920;-71
2021/05/22 11:29:03;;;;;;;;;;;12.50;74.10;;;;;;5071742;28;19916;-73
2021/05/22 11:31:32;;;;;;;;;;;12.40;74.30;;;;;;5071942;28;19927;-73
2021/05/22 11:34:16;;;;;;;;;;;12.40;74.60;;;;;;5069543;28;20019;-73
2021/05/22 11:36:42;;;;;;;;;;;12.40;74.50;;;;;;5071840;28;20007;-73
2021/05/22 11:39:27;;;;;;;;;;;12.40;74.70;;;;;;5071514;28;19967;-73
2021/05/22 11:41:53;;;;;;;;;;;12.50;74.90;;;;;;5071270;28;19982;-72
2021/05/22 11:44:20;;;;;;;;;;;12.50;75.00;;;;;;5070815;28;19940;-73
2021/05/22 11:46:52;;;;;;;;;;;12.50;75.20;;;;;;5070578;28;19916;-72
2021/05/22 11:49:30;;;;;;;;;;;12.50;75.20;;;;;;5071316;28;19917;-73
2021/05/22 11:51:56;;;;;;;;;;;12.50;75.40;;;;;;5071577;28;19996;-73
2021/05/22 11:54:31;;;;;;;;;;;12.60;75.80;;;;;;5070356;28;20443;-73
2021/05/22 11:56:57;;;;;;;;;;;12.60;75.80;;;;;;5058042;28;19927;-74
2021/05/22 11:59:22;;;;;;;;;;;12.60;76.10;;;;;;5051085;28;19917;-72
2021/05/22 12:01:48;;;;;;;;;;;12.70;76.20;;;;;;5051781;28;20120;-73
2021/05/22 12:04:14;;;;;;;;;;;12.80;76.10;;;;;;5049262;28;19917;-74
2021/05/22 12:06:41;;;;;;;;;;;12.70;75.90;;;;;;5050823;28;19959;-73
2021/05/22 12:09:13;;;;;;;;;;;12.70;76.10;;;;;;5051305;28;19916;-73
2021/05/22 12:11:45;;;;;;;;;;;12.70;76.10;;;;;;5048767;28;20015;-72
2021/05/22 12:14:11;;;;;;;;;;;12.60;76.30;;;;;;5050526;28;20436;-73
2021/05/22 12:16:37;;;;;;;;;;;12.60;76.60;;;;;;5050085;28;20388;-72
2021/05/22 12:19:10;;;;;;;;;;;12.60;77.00;;;;;;5050900;28;19971;-73
2021/05/22 12:21:36;;;;;;;;;;;12.60;77.10;;;;;;5049665;28;19916;-72
2021/05/22 12:24:09;;;;;;;;;;;12.70;77.00;;;;;;5033625;28;19947;-73
2021/05/22 12:26:35;;;;;;;;;;;12.70;77.00;;;;;;5055515;28;19955;-73
2021/05/22 12:29:01;;;;;;;;;;;12.70;77.20;;;;;;5054850;28;19959;-72
2021/05/22 12:31:27;;;;;;;;;;;12.80;77.00;;;;;;5055075;28;19917;-72
2021/05/22 12:33:56;;;;;;;;;;;12.80;76.70;;;;;;5054701;28;19952;-72
2021/05/22 12:36:22;;;;;;;;;;;12.70;76.70;;;;;;5036861;28;19959;-73
2021/05/22 12:38:48;;;;;;;;;;;12.80;77.20;;;;;;5055067;28;19948;-73
2021/05/22 12:41:14;;;;;;;;;;;13.00;77.30;;;;;;5053408;28;19960;-73
2021/05/22 12:43:47;;;;;;;;;;;13.00;76.90;;;;;;5054109;28;20011;-72
2021/05/22 12:46:30;;;;;;;;;;;13.10;76.80;;;;;;5054805;28;19944;-74
2021/05/22 12:49:31;;;;;;;;;;;13.10;76.40;;;;;;5054936;28;19955;-72
2021/05/22 12:52:01;;;;;;;;;;;13.00;76.10;;;;;;5047187;28;20273;-72
2021/05/22 12:54:30;;;;;;;;;;;13.00;76.10;;;;;;5054138;28;19924;-74
2021/05/22 12:57:00;;;;;;;;;;;13.00;76.40;;;;;;5054474;28;19974;-74
2021/05/22 12:59:26;;;;;;;;;;;13.00;76.80;;;;;;5054755;28;19920;-74
2021/05/22 13:02:10;;;;;;;;;;;13.10;77.00;;;;;;5054348;28;19924;-74
2021/05/22 13:04:36;;;;;;;;;;;13.30;77.40;;;;;;5054135;28;19917;-74
2021/05/22 13:07:01;;;;;;;;;;;13.60;77.10;;;;;;5054411;28;19913;-74
2021/05/22 13:09:27;;;;;;;;;;;13.80;76.80;;;;;;5054368;28;20373;-75
2021/05/22 13:12:01;;;;;;;;;;;13.80;75.90;;;;;;5054703;28;20261;-74
2021/05/22 13:15:02;;;;;;;;;;;13.80;75.60;;;;;;5053723;28;20416;-74
2021/05/22 13:17:47;;;;;;;;;;;13.70;75.50;;;;;;4995531;28;20356;-74
2021/05/22 13:20:20;;;;;;;;;;;13.70;75.80;;;;;;5051123;28;20351;-74
2021/05/22 13:22:46;;;;;;;;;;;13.90;76.50;;;;;;5053905;28;19935;-74
2021/05/22 13:25:13;;;;;;;;;;;14.10;76.40;;;;;;5053028;28;19912;-75
2021/05/22 13:27:58;;;;;;;;;;;14.50;76.90;;;;;;5053902;28;19921;-74
2021/05/22 13:30:24;;;;;;;;;;;15.00;76.70;;;;;;5054158;28;19942;-74
2021/05/22 13:32:49;;;;;;;;;;;15.40;75.50;;;;;;5053069;28;20009;-74
2021/05/22 13:35:15;;;;;;;;;;;15.60;74.20;;;;;;5053120;28;20012;-73
2021/05/22 13:37:40;;;;;;;;;;;15.60;73.60;;;;;;5053558;28;19924;-74
2021/05/22 13:40:06;;;;;;;;;;;15.60;72.70;;;;;;5053903;28;20400;-74
2021/05/22 13:42:35;;;;;;;;;;;15.60;72.70;;;;;;5053999;28;20376;-74
2021/05/22 13:45:00;;;;;;;;;;;15.60;73.10;;;;;;5051498;28;19917;-73
2021/05/22 13:47:26;;;;;;;;;;;15.50;71.90;;;;;;5053744;28;20082;-73
2021/05/22 13:49:51;;;;;;;;;;;15.30;71.40;;;;;;5054009;28;20270;-74
2021/05/22 13:52:17;;;;;;;;;;;15.00;71.60;;;;;;5053439;28;19917;-74
2021/05/22 13:54:42;;;;;;;;;;;14.80;71.70;;;;;;5052926;28;20430;-74
2021/05/22 13:57:08;;;;;;;;;;;14.60;72.00;;;;;;5053331;28;19921;-73
2021/05/22 13:59:33;;;;;;;;;;;14.50;72.70;;;;;;5053645;28;19917;-73
2021/05/22 14:01:59;;;;;;;;;;;14.40;72.90;;;;;;5052472;28;20380;-74
2021/05/22 14:04:27;;;;;;;;;;;14.30;73.00;;;;;;5051213;28;19931;-73
2021/05/22 14:06:53;;;;;;;;;;;14.40;73.40;;;;;;5053634;28;19921;-74
2021/05/22 14:09:19;;;;;;;;;;;14.50;73.70;;;;;;5053338;28;20423;-74
2021/05/22 14:11:44;;;;;;;;;;;14.70;74.20;;;;;;5053232;28;19920;-73
2021/05/22 14:14:10;;;;;;;;;;;14.90;73.60;;;;;;5052456;28;19917;-73
2021/05/22 14:16:37;;;;;;;;;;;15.00;73.10;;;;;;5052966;28;19935;-73
2021/05/22 14:19:02;;;;;;;;;;;15.00;72.90;;;;;;5053273;28;20123;-74
2021/05/22 14:21:28;;;;;;;;;;;15.10;72.40;;;;;;5053327;28;19917;-74
2021/05/22 14:23:57;;;;;;;;;;;15.00;72.10;;;;;;5051839;28;20007;-74
2021/05/22 14:26:23;;;;;;;;;;;14.80;71.90;;;;;;5053250;28;19921;-73
2021/05/22 14:28:49;;;;;;;;;;;14.70;72.30;;;;;;5052059;28;19917;-73
2021/05/22 14:31:14;;;;;;;;;;;14.60;72.10;;;;;;5053044;28;19956;-73
2021/05/22 14:33:40;;;;;;;;;;;14.50;72.30;;;;;;5050908;28;19939;-73
2021/05/22 14:36:06;;;;;;;;;;;14.50;72.70;;;;;;5052436;28;19921;-74
2021/05/22 14:38:32;;;;;;;;;;;14.60;73.00;;;;;;5052222;28;20382;-74
2021/05/22 14:40:58;;;;;;;;;;;14.70;72.80;;;;;;5051995;28;20023;-73
2021/05/22 14:43:23;;;;;;;;;;;14.80;73.00;;;;;;5050982;28;20389;-73
2021/05/22 14:45:49;;;;;;;;;;;14.90;73.30;;;;;;5049468;28;20398;-73
2021/05/22 14:48:16;;;;;;;;;;;14.90;72.40;;;;;;5040733;28;20000;-74
2021/05/22 14:50:41;;;;;;;;;;;14.90;72.10;;;;;;5031892;28;19924;-73
2021/05/22 14:53:07;;;;;;;;;;;14.80;71.90;;;;;;5031856;28;19918;-73
2021/05/22 14:55:32;;;;;;;;;;;14.80;72.10;;;;;;5032570;28;20287;-73
2021/05/22 14:57:59;;;;;;;;;;;14.90;72.40;;;;;;5032576;28;19972;-73
2021/05/22 15:00:25;;;;;;;;;;;15.00;72.00;;;;;;5032408;28;19924;-73
2021/05/22 15:02:51;;;;;;;;;;;15.00;71.90;;;;;;5031210;28;19917;-74
2021/05/22 15:05:18;;;;;;;;;;;14.90;71.80;;;;;;5032062;28;19917;-73
2021/05/22 15:07:44;;;;;;;;;;;14.90;71.60;;;;;;5032065;28;19963;-73
2021/05/22 15:10:09;;;;;;;;;;;14.90;71.70;;;;;;5032218;28;19921;-74
2021/05/22 15:12:35;;;;;;;;;;;14.80;71.80;;;;;;5032156;28;19921;-73
2021/05/22 15:15:01;;;;;;;;;;;14.80;71.60;;;;;;5030859;28;19917;-73
2021/05/22 15:17:26;;;;;;;;;;;14.70;71.70;;;;;;5032183;28;20297;-74
2021/05/22 15:19:52;;;;;;;;;;;14.60;71.80;;;;;;5031872;28;20000;-74
2021/05/22 15:22:17;;;;;;;;;;;14.60;72.20;;;;;;5032250;28;20004;-74
2021/05/22 15:24:43;;;;;;;;;;;14.60;72.30;;;;;;5049042;28;20277;-74
2021/05/22 15:27:08;;;;;;;;;;;14.60;72.00;;;;;;5071762;28;19947;-73
2021/05/22 15:29:34;;;;;;;;;;;14.60;72.10;;;;;;5071611;28;19931;-73
2021/05/22 15:32:00;;;;;;;;;;;14.60;72.30;;;;;;5071967;28;19958;-74
2021/05/22 15:34:25;;;;;;;;;;;14.60;72.20;;;;;;5070743;28;19917;-72
2021/05/22 15:36:51;;;;;;;;;;;14.50;72.00;;;;;;5071673;28;20023;-73
2021/05/22 15:39:16;;;;;;;;;;;14.40;72.00;;;;;;5071448;28;19923;-73
2021/05/22 15:41:42;;;;;;;;;;;14.50;72.40;;;;;;5071416;28;19939;-73
2021/05/22 15:44:09;;;;;;;;;;;14.60;72.60;;;;;;5069621;28;19916;-73
2021/05/22 15:46:35;;;;;;;;;;;14.60;72.30;;;;;;5070225;28;19916;-73
2021/05/22 15:53:30;;;;;;;;;;;14.60;72.40;;;;;;5031024;28;19917;-72
2021/05/22 15:59:59;;;;;;;;;;;14.90;73.40;;;;;;5030413;28;19917;-72
2021/05/22 16:02:42;;;;;;;;;;;15.00;73.10;;;;;;5030618;28;19972;-73
2021/05/22 16:05:20;;;;;;;;;;;15.00;72.70;;;;;;5030756;28;19917;-74
2021/05/22 16:07:46;;;;;;;;;;;15.00;71.90;;;;;;5031615;28;19959;-75
2021/05/22 16:10:12;;;;;;;;;;;14.90;72.20;;;;;;5031302;28;19953;-72
2021/05/22 16:12:37;;;;;;;;;;;14.80;72.40;;;;;;5030249;28;20412;-73
2021/05/22 16:15:03;;;;;;;;;;;14.80;72.90;;;;;;5030688;28;20385;-73
2021/05/22 16:17:29;;;;;;;;;;;14.90;73.00;;;;;;5030985;28;19958;-74
2021/05/22 16:19:54;;;;;;;;;;;14.80;72.40;;;;;;5031629;28;19917;-73
2021/05/22 16:22:20;;;;;;;;;;;14.80;72.60;;;;;;5031561;28;20112;-73
2021/05/22 16:24:46;;;;;;;;;;;14.80;72.60;;;;;;5030247;28;19932;-73
2021/05/22 16:27:12;;;;;;;;;;;14.80;72.90;;;;;;5036948;28;20348;-74
2021/05/22 16:29:41;;;;;;;;;;;14.90;72.90;;;;;;5065801;28;19970;-73
2021/05/22 16:32:06;;;;;;;;;;;14.90;73.00;;;;;;5051100;28;20377;-74
2021/05/22 16:34:32;;;;;;;;;;;15.00;72.60;;;;;;5050550;28;19921;-73
2021/05/22 16:36:58;;;;;;;;;;;15.00;72.50;;;;;;5050843;28;19967;-73
2021/05/22 16:39:23;;;;;;;;;;;14.90;72.10;;;;;;5051088;28;19948;-74
2021/05/22 16:41:49;;;;;;;;;;;14.90;72.40;;;;;;5065720;28;19917;-72
2021/05/22 16:44:15;;;;;;;;;;;14.70;72.20;;;;;;5050343;28;20004;-73
2021/05/22 16:46:40;;;;;;;;;;;14.60;72.20;;;;;;5051067;28;19924;-74
2021/05/22 16:49:06;;;;;;;;;;;14.50;72.60;;;;;;5047250;28;19922;-74
2021/05/22 16:51:32;;;;;;;;;;;14.50;73.10;;;;;;5030942;28;19917;-74
2021/05/22 16:53:57;;;;;;;;;;;14.60;73.30;;;;;;5030391;28;19924;-73
2021/05/22 16:56:26;;;;;;;;;;;14.50;72.90;;;;;;5030256;28;19967;-73
2021/05/22 16:58:51;;;;;;;;;;;14.50;73.10;;;;;;5038388;28;19924;-73
2021/05/22 17:01:17;;;;;;;;;;;14.40;72.90;;;;;;5050348;28;19916;-73
2021/05/22 17:03:43;;;;;;;;;;;14.30;73.10;;;;;;5050095;28;19917;-73
2021/05/22 17:06:08;;;;;;;;;;;14.20;73.30;;;;;;5050865;28;19921;-74
2021/05/22 17:08:34;;;;;;;;;;;14.00;73.50;;;;;;5045842;28;20411;-73
2021/05/22 17:10:59;;;;;;;;;;;13.80;74.00;;;;;;5039339;28;20676;-73
2021/05/22 17:13:25;;;;;;;;;;;13.70;74.00;;;;;;5022659;28;19925;-74
2021/05/22 17:15:50;;;;;;;;;;;13.50;74.50;;;;;;5058064;28;19960;-73
2021/05/22 17:18:16;;;;;;;;;;;13.40;74.90;;;;;;5044279;28;19952;-74
2021/05/22 17:20:41;;;;;;;;;;;13.30;75.40;;;;;;5044929;28;19917;-72
2021/05/22 17:23:07;;;;;;;;;;;13.30;76.00;;;;;;5043897;28;19932;-73
2021/05/22 17:25:32;;;;;;;;;;;13.20;76.50;;;;;;5043973;28;20349;-66
2021/05/22 17:27:58;;;;;;;;;;;13.20;76.80;;;;;;5032393;28;20036;-67
2021/05/22 17:30:27;;;;;;;;;;;13.20;77.00;;;;;;5044184;28;19917;-66
2021/05/22 17:32:53;;;;;;;;;;;13.10;77.10;;;;;;5031729;28;20407;-65
2021/05/22 17:35:18;;;;;;;;;;;13.10;77.40;;;;;;5016564;28;19945;-66
2021/05/22 17:37:44;;;;;;;;;;;13.00;77.50;;;;;;5032946;28;19927;-66
2021/05/22 17:40:11;;;;;;;;;;;12.90;77.80;;;;;;5033707;28;20377;-66
2021/05/22 17:42:37;;;;;;;;;;;12.80;77.80;;;;;;5034171;28;19948;-65
2021/05/22 17:45:04;;;;;;;;;;;12.80;78.40;;;;;;5033229;28;19956;-68
2021/05/22 17:47:30;;;;;;;;;;;12.70;78.80;;;;;;5035696;28;19925;-66
2021/05/22 17:49:55;;;;;;;;;;;12.70;79.00;;;;;;5033447;28;20404;-66
2021/05/22 17:52:21;;;;;;;;;;;12.60;79.10;;;;;;5032065;28;19917;-66
2021/05/22 17:54:47;;;;;;;;;;;12.50;79.50;;;;;;5033244;28;20369;-68
2021/05/22 17:57:12;;;;;;;;;;;12.50;79.50;;;;;;5033741;28;19972;-66
2021/05/22 17:59:39;;;;;;;;;;;12.40;79.70;;;;;;5033261;28;19921;-66
2021/05/22 18:02:04;;;;;;;;;;;12.40;80.00;;;;;;5033599;28;19979;-66
2021/05/22 18:04:30;;;;;;;;;;;12.30;80.20;;;;;;5031417;28;19921;-66
2021/05/22 18:06:55;;;;;;;;;;;12.20;80.30;;;;;;5033190;28;19940;-66
2021/05/22 18:09:22;;;;;;;;;;;12.20;80.50;;;;;;5032875;28;20274;-66
2021/05/22 18:11:49;;;;;;;;;;;12.10;80.60;;;;;;5031444;28;19943;-67
2021/05/22 18:14:14;;;;;;;;;;;12.00;80.60;;;;;;5033622;28;19921;-67
2021/05/22 18:16:40;;;;;;;;;;;12.00;80.70;;;;;;5048726;28;19925;-66
2021/05/22 18:19:06;;;;;;;;;;;11.90;80.80;;;;;;5033655;28;20329;-66
2021/05/22 18:21:31;;;;;;;;;;;11.90;80.90;;;;;;5032307;28;19929;-66
2021/05/22 18:23:57;;;;;;;;;;;11.90;81.00;;;;;;5032416;28;20451;-67
2021/05/22 18:26:22;;;;;;;;;;;11.90;81.00;;;;;;5033647;28;19917;-65
2021/05/22 18:28:48;;;;;;;;;;;11.90;80.80;;;;;;5033489;28;19917;-68
2021/05/22 18:31:13;;;;;;;;;;;11.90;80.80;;;;;;5032859;28;19917;-66
2021/05/22 18:33:39;;;;;;;;;;;11.90;80.90;;;;;;5032867;28;19920;-67
2021/05/22 18:36:05;;;;;;;;;;;11.90;80.70;;;;;;5033156;28;19928;-66
2021/05/22 18:38:31;;;;;;;;;;;11.90;80.60;;;;;;5032887;28;19936;-67
2021/05/22 18:40:59;;;;;;;;;;;11.90;80.50;;;;;;5032953;28;20003;-66
2021/05/22 18:43:25;;;;;;;;;;;11.90;80.40;;;;;;5032152;28;19917;-66
2021/05/22 18:45:54;;;;;;;;;;;11.80;80.40;;;;;;5033318;28;19917;-67
2021/05/22 18:48:20;;;;;;;;;;;11.80;80.30;;;;;;5032965;28;19913;-66
2021/05/22 18:50:46;;;;;;;;;;;11.90;80.40;;;;;;5032587;28;20381;-67
2021/05/22 18:53:12;;;;;;;;;;;11.80;80.20;;;;;;5032410;28;19924;-67
2021/05/22 18:55:37;;;;;;;;;;;11.80;80.20;;;;;;5032822;28;19921;-67
2021/05/22 18:58:03;;;;;;;;;;;11.80;80.00;;;;;;5032447;28;19964;-65
2021/05/22 19:00:29;;;;;;;;;;;11.80;79.90;;;;;;5032721;28;19917;-66
2021/05/22 19:02:55;;;;;;;;;;;11.80;79.80;;;;;;5031963;28;19956;-66
2021/05/22 19:05:20;;;;;;;;;;;11.80;79.70;;;;;;5032837;28;19917;-66
2021/05/22 19:07:47;;;;;;;;;;;11.80;79.60;;;;;;5031412;28;20385;-65
2021/05/22 19:10:13;;;;;;;;;;;11.70;79.40;;;;;;5031823;28;19979;-65
2021/05/22 19:12:39;;;;;;;;;;;11.70;79.30;;;;;;5032549;28;20004;-66
2021/05/22 19:15:06;;;;;;;;;;;11.70;79.20;;;;;;5031715;28;19944;-65
2021/05/22 19:17:31;;;;;;;;;;;11.70;79.00;;;;;;5032302;28;20385;-66
2021/05/22 19:19:57;;;;;;;;;;;11.70;78.90;;;;;;5031151;28;19988;-66
2021/05/22 19:22:23;;;;;;;;;;;11.70;78.70;;;;;;5032089;28;20007;-66
2021/05/22 19:24:49;;;;;;;;;;;11.70;78.50;;;;;;5031777;28;19959;-66
2021/05/22 19:27:14;;;;;;;;;;;11.60;78.40;;;;;;5031015;28;19917;-65
2021/05/22 19:29:40;;;;;;;;;;;11.60;78.40;;;;;;5031885;28;19987;-66
2021/05/22 19:32:06;;;;;;;;;;;11.60;78.20;;;;;;5032265;28;19917;-67
2021/05/22 19:34:31;;;;;;;;;;;11.60;78.10;;;;;;5030296;28;19918;-65
2021/05/22 19:36:57;;;;;;;;;;;11.60;77.90;;;;;;5032180;28;19921;-66
2021/05/22 19:39:23;;;;;;;;;;;11.50;78.10;;;;;;5032096;28;20365;-66
2021/05/22 19:41:48;;;;;;;;;;;11.50;77.70;;;;;;5030402;28;19940;-67
2021/05/22 19:44:14;;;;;;;;;;;11.50;77.60;;;;;;5031634;28;19996;-66
2021/05/22 19:46:40;;;;;;;;;;;11.50;77.50;;;;;;5030820;28;19921;-67
2021/05/22 19:49:05;;;;;;;;;;;11.50;77.30;;;;;;5031660;28;19984;-67
2021/05/22 19:51:31;;;;;;;;;;;11.50;77.30;;;;;;5031890;28;19956;-65
2021/05/22 19:53:57;;;;;;;;;;;11.50;77.20;;;;;;5030950;28;20366;-66
2021/05/22 19:56:23;;;;;;;;;;;11.50;77.10;;;;;;5031728;28;20012;-66
2021/05/22 19:58:49;;;;;;;;;;;11.50;77.00;;;;;;5031741;28;19941;-66
2021/05/22 20:01:14;;;;;;;;;;;11.40;76.90;;;;;;5031421;28;19936;-66
2021/05/22 20:03:40;;;;;;;;;;;11.50;76.90;;;;;;5031176;28;19921;-66
2021/05/22 20:06:06;;;;;;;;;;;11.50;76.80;;;;;;5030130;28;19924;-66
2021/05/22 20:08:33;;;;;;;;;;;11.40;76.70;;;;;;5031591;28;20020;-67
2021/05/22 20:10:59;;;;;;;;;;;11.40;76.70;;;;;;5031436;28;19921;-66
2021/05/22 20:13:25;;;;;;;;;;;11.40;76.60;;;;;;5029332;28;19917;-66
2021/05/22 20:15:51;;;;;;;;;;;11.40;76.60;;;;;;5031521;28;19923;-65
2021/05/22 20:18:17;;;;;;;;;;;11.40;76.50;;;;;;5030202;28;20400;-65
2021/05/22 20:20:42;;;;;;;;;;;11.40;76.40;;;;;;5031107;28;19925;-66
2021/05/22 20:23:09;;;;;;;;;;;11.40;76.50;;;;;;5031040;28;20016;-66
2021/05/22 20:25:35;;;;;;;;;;;11.40;76.30;;;;;;5031171;28;19948;-65
2021/05/22 20:28:00;;;;;;;;;;;11.30;76.20;;;;;;5030316;28;19945;-66
2021/05/22 20:30:26;;;;;;;;;;;11.30;76.30;;;;;;5031482;28;19921;-68
2021/05/22 20:32:52;;;;;;;;;;;11.30;76.30;;;;;;5030444;28;19931;-68
2021/05/22 20:35:18;;;;;;;;;;;11.30;76.20;;;;;;5031412;28;19918;-67
2021/05/22 20:37:44;;;;;;;;;;;11.30;76.20;;;;;;5030054;28;19995;-66
2021/05/22 20:40:11;;;;;;;;;;;11.20;76.10;;;;;;5030985;28;19921;-65
2021/05/22 20:42:37;;;;;;;;;;;11.30;76.10;;;;;;5031577;28;20215;-65
2021/05/22 20:45:04;;;;;;;;;;;11.30;76.20;;;;;;5031739;28;19921;-67
2021/05/22 20:47:29;;;;;;;;;;;11.20;76.10;;;;;;5035383;28;19955;-66
2021/05/22 20:49:55;;;;;;;;;;;11.30;76.10;;;;;;5035207;28;19921;-66
2021/05/22 20:52:20;;;;;;;;;;;11.30;76.10;;;;;;5034729;28;19925;-65
2021/05/22 20:54:46;;;;;;;;;;;11.20;76.00;;;;;;5034620;28;19918;-65
2021/05/22 20:57:12;;;;;;;;;;;11.20;76.00;;;;;;5034690;28;19921;-66
2021/05/22 20:59:38;;;;;;;;;;;11.20;76.00;;;;;;5036434;28;19996;-66
2021/05/22 21:02:06;;;;;;;;;;;11.20;75.90;;;;;;5038077;28;19940;-66
2021/05/22 21:04:31;;;;;;;;;;;11.20;75.80;;;;;;5037050;28;20452;-65
2021/05/22 21:06:58;;;;;;;;;;;11.20;75.70;;;;;;5038294;28;19975;-66
2021/05/22 21:09:23;;;;;;;;;;;11.20;75.70;;;;;;5037847;28;19917;-66
2021/05/22 21:11:49;;;;;;;;;;;11.20;75.70;;;;;;5037714;28;19932;-66
2021/05/22 21:14:15;;;;;;;;;;;11.10;75.60;;;;;;5034495;28;19917;-66
2021/05/22 21:16:41;;;;;;;;;;;11.10;75.70;;;;;;5034384;28;20020;-66
2021/05/22 21:19:06;;;;;;;;;;;11.10;75.70;;;;;;5034808;28;19964;-65
2021/05/22 21:21:32;;;;;;;;;;;11.10;75.60;;;;;;5034782;28;20361;-64